createdAt,value
2023-03-05T00:01:30.249Z,100507.00
2023-03-05T00:03:58.809Z,100505.31
2023-03-05T00:06:29.731Z,100499.97
2023-03-05T00:08:59.580Z,100515.03
2023-03-05T00:11:30.318Z,100508.72
2023-03-05T00:13:59.921Z,100507.00
2023-03-05T00:16:29.415Z,100515.03
2023-03-05T00:18:59.147Z,100502.50
2023-03-05T00:21:29.475Z,100507.00
2023-03-05T00:24:01.667Z,100501.66
2023-03-05T00:26:31.179Z,100493.63
2023-03-05T00:29:00.150Z,100490.94
2023-03-05T00:31:31.233Z,100496.28
2023-03-05T00:34:01.686Z,100484.78
2023-03-05T00:36:30.245Z,100478.25
2023-03-05T00:39:00.312Z,100489.25
2023-03-05T00:41:29.005Z,100480.25
2023-03-05T00:43:57.249Z,100471.53
2023-03-05T00:46:27.537Z,100480.25
2023-03-05T00:48:56.235Z,100469.81
2023-03-05T00:51:24.548Z,100465.91
2023-03-05T00:53:52.716Z,100468.72
2023-03-05T00:56:22.430Z,100462.50
2023-03-05T00:58:50.585Z,100467.88
2023-03-05T01:01:18.732Z,100461.50
2023-03-05T01:03:46.905Z,100458.84
2023-03-05T01:06:16.591Z,100457.16
2023-03-05T01:08:44.797Z,100445.59
2023-03-05T01:11:13.576Z,100454.50
2023-03-05T01:13:43.234Z,100441.09
2023-03-05T01:16:11.335Z,100444.63
2023-03-05T01:18:40.601Z,100279.94
2023-03-05T01:21:09.084Z,100435.03
2023-03-05T01:23:37.574Z,100432.09
2023-03-05T01:26:06.307Z,100351.72
2023-03-05T01:28:34.370Z,100437.44
2023-03-05T01:31:04.143Z,100428.72
2023-03-05T01:33:32.221Z,100425.06
2023-03-05T01:36:00.303Z,100430.41
2023-03-05T01:38:28.361Z,100427.72
2023-03-05T01:40:56.406Z,100430.41
2023-03-05T01:43:27.470Z,100426.06
2023-03-05T01:46:38.166Z,100423.38
2023-03-05T01:49:18.712Z,100418.03
2023-03-05T01:51:56.588Z,100421.66
2023-03-05T01:54:28.260Z,100419.97
2023-03-05T01:57:00.415Z,100420.84
2023-03-05T01:59:29.242Z,100423.66
2023-03-05T02:02:00.746Z,100422.53
2023-03-05T02:04:37.585Z,100415.50
2023-03-05T02:07:06.376Z,100412.69
2023-03-05T02:09:34.507Z,100405.63
2023-03-05T02:12:02.585Z,100412.69
2023-03-05T02:14:30.736Z,100406.59
2023-03-05T02:17:00.286Z,100400.81
2023-03-05T02:19:28.756Z,100407.59
2023-03-05T02:21:58.201Z,100401.97
2023-03-05T02:24:37.604Z,100401.97
2023-03-05T02:27:07.088Z,100394.91
2023-03-05T02:29:38.091Z,100399.31
2023-03-05T02:32:06.921Z,100306.03
2023-03-05T02:34:35.093Z,100396.63
2023-03-05T02:37:04.877Z,100387.59
2023-03-05T02:39:33.461Z,100387.59
2023-03-05T02:42:01.490Z,100382.25
2023-03-05T02:44:29.591Z,100381.41
2023-03-05T02:46:57.620Z,100382.25
2023-03-05T02:49:25.766Z,100367.75
2023-03-05T02:51:53.905Z,100297.88
2023-03-05T02:54:23.641Z,100378.84
2023-03-05T02:56:51.761Z,100376.19
2023-03-05T02:59:19.887Z,100378.03
2023-03-05T03:01:48.003Z,100369.88
2023-03-05T03:04:16.086Z,100273.78
2023-03-05T03:06:44.224Z,100366.19
2023-03-05T03:09:12.358Z,100371.56
2023-03-05T03:11:41.870Z,100366.19
2023-03-05T03:14:10.046Z,100359.16
2023-03-05T03:16:38.319Z,100360.84
2023-03-05T03:19:06.757Z,100359.16
2023-03-05T03:21:34.844Z,100353.81
2023-03-05T03:24:03.016Z,100357.47
2023-03-05T03:26:31.987Z,100354.09
2023-03-05T03:29:01.554Z,100356.34
2023-03-05T03:31:29.642Z,100348.47
2023-03-05T03:33:57.748Z,100349.28
2023-03-05T03:36:25.871Z,100356.50
2023-03-05T03:38:53.955Z,100344.09
2023-03-05T03:41:22.053Z,100342.25
2023-03-05T03:43:50.154Z,100340.44
2023-03-05T03:46:19.748Z,100343.13
2023-03-05T03:48:51.477Z,100330.44
2023-03-05T03:51:19.798Z,100348.47
2023-03-05T03:53:47.910Z,100343.94
2023-03-05T03:56:16.011Z,100334.38
2023-03-05T03:58:44.084Z,100338.88
2023-03-05T04:01:12.354Z,100337.78
2023-03-05T04:03:41.882Z,100335.38
2023-03-05T04:06:09.978Z,100336.06
2023-03-05T04:08:38.372Z,100331.56
2023-03-05T04:11:06.604Z,100328.03
2023-03-05T04:13:34.848Z,100328.03
2023-03-05T04:16:03.071Z,100321.72
2023-03-05T04:18:32.591Z,100329.03
2023-03-05T04:21:02.220Z,100316.38
2023-03-05T04:23:30.368Z,100313.69
2023-03-05T04:25:58.549Z,100245.94
2023-03-05T04:28:26.694Z,100312.97
2023-03-05T04:30:54.877Z,100180.56
2023-03-05T04:33:22.972Z,100318.31
2023-03-05T04:35:51.426Z,100301.97
2023-03-05T04:38:21.026Z,100320.00
2023-03-05T04:40:49.339Z,100318.31
2023-03-05T04:43:17.414Z,100246.81
2023-03-05T04:45:45.897Z,100319.19
2023-03-05T04:48:14.376Z,100312.97
2023-03-05T04:50:42.589Z,100317.34
2023-03-05T04:53:10.688Z,100314.66
2023-03-05T04:55:40.200Z,100309.31
2023-03-05T04:58:08.388Z,100314.66
2023-03-05T05:00:37.088Z,100150.88
2023-03-05T05:03:05.329Z,100314.94
2023-03-05T05:05:33.628Z,100307.63
2023-03-05T05:08:01.808Z,100312.25
2023-03-05T05:10:29.931Z,100313.25
2023-03-05T05:12:59.438Z,100318.31
2023-03-05T05:15:27.590Z,100309.59
2023-03-05T05:17:55.724Z,100318.31
2023-03-05T05:20:24.081Z,100320.28
2023-03-05T05:22:52.451Z,100228.22
2023-03-05T05:25:20.675Z,100317.34
2023-03-05T05:27:48.792Z,100314.66
2023-03-05T05:30:18.511Z,100313.84
2023-03-05T05:32:46.645Z,100309.31
2023-03-05T05:35:14.757Z,100312.84
2023-03-05T05:37:42.900Z,100311.97
2023-03-05T05:40:12.264Z,100298.88
2023-03-05T05:42:40.367Z,100307.63
2023-03-05T05:45:10.140Z,100221.16
2023-03-05T05:47:39.834Z,100307.63
2023-03-05T05:50:09.073Z,100305.94
2023-03-05T05:52:37.163Z,100306.22
2023-03-05T05:55:06.120Z,100136.97
2023-03-05T05:57:35.011Z,100306.78
2023-03-05T06:00:03.385Z,100298.88
2023-03-05T06:02:31.498Z,100301.28
2023-03-05T06:05:00.956Z,100303.97
2023-03-05T06:07:29.111Z,100271.88
2023-03-05T06:09:57.182Z,100303.97
2023-03-05T06:12:25.267Z,100309.31
2023-03-05T06:14:53.972Z,100309.31
2023-03-05T06:17:30.376Z,100298.88
2023-03-05T06:20:01.169Z,100312.97
2023-03-05T06:22:29.351Z,100310.31
2023-03-05T06:24:57.570Z,100311.31
2023-03-05T06:27:25.683Z,100300.59
2023-03-05T06:29:54.870Z,100300.59
2023-03-05T06:32:23.048Z,100302.28
2023-03-05T06:34:51.766Z,100303.28
2023-03-05T06:37:21.280Z,100304.94
2023-03-05T06:39:49.413Z,100297.94
2023-03-05T06:42:19.474Z,100297.94
2023-03-05T06:44:48.372Z,100304.94
2023-03-05T06:47:16.745Z,100301.44
2023-03-05T06:49:44.885Z,100300.59
2023-03-05T06:52:12.980Z,100300.59
2023-03-05T06:54:42.466Z,100294.41
2023-03-05T06:57:11.703Z,100293.25
2023-03-05T06:59:39.753Z,100294.25
2023-03-05T07:02:07.914Z,100293.41
2023-03-05T07:04:35.994Z,100296.06
2023-03-05T07:07:04.078Z,100296.94
2023-03-05T07:09:32.156Z,100295.94
2023-03-05T07:12:01.625Z,100298.59
2023-03-05T07:14:29.700Z,100297.78
2023-03-05T07:16:57.834Z,100310.31
2023-03-05T07:19:25.889Z,100294.97
2023-03-05T07:21:53.924Z,100293.25
2023-03-05T07:24:22.937Z,100293.25
2023-03-05T07:26:51.226Z,100292.44
2023-03-05T07:29:20.872Z,100295.25
2023-03-05T07:31:48.907Z,100289.91
2023-03-05T07:34:17.150Z,100295.38
2023-03-05T07:36:45.316Z,100301.28
2023-03-05T07:39:14.187Z,100297.78
2023-03-05T07:41:42.277Z,100301.28
2023-03-05T07:44:11.267Z,100303.97
2023-03-05T07:46:40.711Z,100291.59
2023-03-05T07:49:08.927Z,100292.44
2023-03-05T07:51:37.449Z,100298.59
2023-03-05T07:54:05.802Z,100296.94
2023-03-05T07:56:36.342Z,100302.28
2023-03-05T07:59:07.034Z,100296.94
2023-03-05T08:01:36.027Z,100289.91
2023-03-05T08:04:06.769Z,100291.59
2023-03-05T08:06:35.187Z,100279.19
2023-03-05T08:09:03.364Z,100273.84
2023-03-05T08:11:31.474Z,100270.19
2023-03-05T08:14:00.553Z,100280.88
2023-03-05T08:16:28.767Z,100282.56
2023-03-05T08:18:57.955Z,100278.91
2023-03-05T08:21:30.076Z,100273.56
2023-03-05T08:23:58.852Z,100275.25
2023-03-05T08:26:30.956Z,100177.28
2023-03-05T08:28:59.897Z,100187.13
2023-03-05T08:31:30.390Z,100275.25
2023-03-05T08:34:00.701Z,100261.88
2023-03-05T08:36:30.643Z,100268.22
2023-03-05T08:38:59.785Z,100264.53
2023-03-05T08:41:28.168Z,100262.88
2023-03-05T08:43:56.712Z,100257.53
2023-03-05T08:46:25.691Z,100255.81
2023-03-05T08:48:54.042Z,100262.88
2023-03-05T08:51:25.558Z,100250.47
2023-03-05T08:53:56.905Z,100247.91
2023-03-05T08:56:26.350Z,100246.81
2023-03-05T08:58:54.551Z,100246.81
2023-03-05T09:01:24.066Z,100240.47
2023-03-05T09:03:52.425Z,100220.91
2023-03-05T09:06:20.761Z,100233.44
2023-03-05T09:08:48.965Z,100229.06
2023-03-05T09:11:18.874Z,100246.81
2023-03-05T09:13:47.227Z,100225.41
2023-03-05T09:16:17.087Z,100220.06
2023-03-05T09:18:45.415Z,100202.88
2023-03-05T09:21:15.982Z,100218.34
2023-03-05T09:23:47.334Z,100213.00
2023-03-05T09:26:19.417Z,100204.00
2023-03-05T09:28:49.425Z,100212.03
2023-03-05T09:31:18.019Z,100203.16
2023-03-05T09:33:46.247Z,100204.00
2023-03-05T09:36:20.947Z,100221.75
2023-03-05T09:38:49.225Z,100204.00
2023-03-05T09:41:24.943Z,100102.47
2023-03-05T09:44:03.768Z,100191.59
2023-03-05T09:46:47.891Z,100191.59
2023-03-05T09:49:19.707Z,100204.97
2023-03-05T09:51:53.287Z,100197.53
2023-03-05T09:54:24.805Z,100199.78
2023-03-05T09:56:57.864Z,100192.59
2023-03-05T09:59:36.090Z,100196.97
2023-03-05T10:02:13.893Z,100193.59
2023-03-05T10:04:48.689Z,100189.94
2023-03-05T10:07:21.354Z,100190.78
2023-03-05T10:09:55.779Z,100188.09
2023-03-05T10:12:34.587Z,100180.91
2023-03-05T10:15:04.228Z,100187.25
2023-03-05T10:17:51.894Z,100168.25
2023-03-05T10:20:55.408Z,100175.56
2023-03-05T10:24:00.415Z,100179.22
2023-03-05T10:26:51.952Z,100176.56
2023-03-05T10:29:39.939Z,100170.50
2023-03-05T10:32:23.490Z,100167.81
2023-03-05T10:35:14.252Z,100038.34
2023-03-05T10:37:56.407Z,100156.44
2023-03-05T10:40:32.664Z,100163.47
2023-03-05T10:43:09.690Z,100160.09
2023-03-05T10:45:41.636Z,100160.09
2023-03-05T10:48:17.156Z,100152.78
2023-03-05T10:50:49.693Z,100157.25
2023-03-05T10:53:25.780Z,100075.44
2023-03-05T10:55:56.605Z,100144.63
2023-03-05T10:58:26.372Z,100142.34
2023-03-05T11:01:05.915Z,100121.00
2023-03-05T11:03:54.518Z,100147.41
2023-03-05T11:06:37.929Z,100151.09
2023-03-05T11:09:24.332Z,100051.56
2023-03-05T11:12:22.637Z,100153.63
2023-03-05T11:15:05.613Z,100078.25
2023-03-05T11:17:37.523Z,100135.63
2023-03-05T11:20:35.338Z,100146.41
2023-03-05T11:23:06.011Z,100055.06
2023-03-05T11:25:36.141Z,100130.38
2023-03-05T11:28:05.297Z,100139.25
2023-03-05T11:30:37.387Z,100140.09
2023-03-05T11:33:11.491Z,100015.00
2023-03-05T11:35:43.218Z,100127.69
2023-03-05T11:38:19.477Z,100119.81
2023-03-05T11:40:48.519Z,99961.31
2023-03-05T11:43:18.612Z,100137.44
2023-03-05T11:45:48.974Z,100046.47
2023-03-05T11:48:22.695Z,100134.75
2023-03-05T11:50:56.107Z,100124.88
2023-03-05T11:53:29.572Z,100126.72
2023-03-05T11:56:03.379Z,100120.38
2023-03-05T11:58:35.997Z,100114.19
2023-03-05T12:01:07.863Z,100016.84
2023-03-05T12:03:39.793Z,99938.53
2023-03-05T12:06:19.063Z,100111.34
2023-03-05T12:08:51.364Z,100111.34
2023-03-05T12:11:23.008Z,100106.00
2023-03-05T12:13:53.945Z,100104.34
2023-03-05T12:16:29.820Z,100097.31
2023-03-05T12:19:18.484Z,100092.63
2023-03-05T12:21:52.131Z,100099.84
2023-03-05T12:24:38.455Z,100079.25
2023-03-05T12:27:15.992Z,100079.25
2023-03-05T12:29:49.420Z,100067.47
2023-03-05T12:33:00.911Z,100079.25
2023-03-05T12:35:37.077Z,100065.75
2023-03-05T12:38:34.582Z,100060.53
2023-03-05T12:41:37.687Z,100065.22
2023-03-05T12:44:26.588Z,100066.88
2023-03-05T12:47:17.907Z,100070.56
2023-03-05T12:49:47.965Z,100063.50
2023-03-05T12:52:24.622Z,100063.50
2023-03-05T12:55:06.218Z,100066.88
2023-03-05T12:57:35.019Z,100056.19
2023-03-05T13:00:06.575Z,100064.22
2023-03-05T13:02:38.682Z,100050.84
2023-03-05T13:05:18.807Z,99932.56
2023-03-05T13:07:46.910Z,100056.19
2023-03-05T13:10:25.977Z,100052.50
2023-03-05T13:12:56.402Z,100043.09
2023-03-05T13:15:25.820Z,99966.00
2023-03-05T13:17:57.736Z,99943.09
2023-03-05T13:20:34.867Z,100032.81
2023-03-05T13:23:22.688Z,99936.47
2023-03-05T13:26:03.716Z,100032.81
2023-03-05T13:28:33.752Z,100023.09
2023-03-05T13:31:04.044Z,100022.41
2023-03-05T13:33:33.912Z,100015.06
2023-03-05T13:36:02.877Z,100020.41
2023-03-05T13:38:35.797Z,100018.75
2023-03-05T13:41:21.442Z,100006.38
2023-03-05T13:43:51.195Z,99927.75
2023-03-05T13:46:28.280Z,100007.19
2023-03-05T13:48:56.849Z,100005.22
2023-03-05T13:51:25.811Z,100008.03
2023-03-05T13:53:54.771Z,100009.72
2023-03-05T13:56:24.491Z,100004.38
2023-03-05T13:58:54.812Z,100014.09
2023-03-05T14:01:30.218Z,100011.41
2023-03-05T14:04:01.336Z,100009.72
2023-03-05T14:06:31.099Z,99845.53
2023-03-05T14:09:07.107Z,100006.06
2023-03-05T14:11:37.359Z,100008.75
2023-03-05T14:14:11.045Z,99997.34
2023-03-05T14:16:39.232Z,99997.34
2023-03-05T14:19:09.283Z,99991.00
2023-03-05T14:21:49.590Z,99990.03
2023-03-05T14:24:23.659Z,99908.38
2023-03-05T14:26:56.819Z,99957.72
2023-03-05T14:29:27.576Z,99982.97
2023-03-05T14:31:58.344Z,99977.63
2023-03-05T14:34:30.231Z,99973.56
2023-03-05T14:37:03.246Z,99972.25
2023-03-05T14:39:46.710Z,99958.91
2023-03-05T14:42:31.995Z,99964.25
2023-03-05T14:45:01.977Z,99959.91
2023-03-05T14:47:30.426Z,99966.91
2023-03-05T14:49:58.647Z,99953.53
2023-03-05T14:52:28.318Z,99956.22
2023-03-05T14:54:57.296Z,99961.56
2023-03-05T14:57:29.425Z,99960.59
2023-03-05T14:59:57.480Z,99953.53
2023-03-05T15:02:27.985Z,99846.63
2023-03-05T15:04:56.157Z,99949.19
2023-03-05T15:07:28.127Z,99934.81
2023-03-05T15:09:56.360Z,99940.16
2023-03-05T15:12:25.515Z,99936.81
2023-03-05T15:14:56.424Z,99923.31
2023-03-05T15:17:31.030Z,99812.19
2023-03-05T15:19:59.119Z,99913.19
2023-03-05T15:22:27.311Z,99929.47
2023-03-05T15:24:55.508Z,99920.47
2023-03-05T15:27:23.605Z,99920.47
2023-03-05T15:29:51.912Z,99836.28
2023-03-05T15:32:21.461Z,99915.13
2023-03-05T15:34:49.932Z,99883.75
2023-03-05T15:37:18.022Z,99923.16
2023-03-05T15:39:46.109Z,99909.78
2023-03-05T15:42:14.254Z,99918.78
2023-03-05T15:44:42.539Z,99927.50
2023-03-05T15:47:11.124Z,99917.81
2023-03-05T15:49:40.652Z,99916.81
2023-03-05T15:52:08.809Z,99914.13
2023-03-05T15:54:37.665Z,99927.50
2023-03-05T15:57:10.731Z,99914.13
2023-03-05T15:59:38.864Z,99916.81
2023-03-05T16:02:07.962Z,99918.63
2023-03-05T16:04:36.078Z,99914.13
2023-03-05T16:07:06.865Z,99905.25
2023-03-05T16:09:38.622Z,99904.44
2023-03-05T16:12:11.696Z,99906.09
2023-03-05T16:14:41.600Z,99913.13
2023-03-05T16:17:10.299Z,99906.09
2023-03-05T16:19:43.421Z,99893.44
2023-03-05T16:22:12.906Z,99897.06
2023-03-05T16:24:41.037Z,99813.50
2023-03-05T16:27:09.181Z,99882.44
2023-03-05T16:29:37.268Z,99892.84
2023-03-05T16:32:06.538Z,99819.19
2023-03-05T16:34:35.006Z,99804.75
2023-03-05T16:37:04.783Z,99796.00
2023-03-05T16:39:34.334Z,99885.19
2023-03-05T16:42:03.253Z,99879.84
2023-03-05T16:44:31.380Z,99878.88
2023-03-05T16:46:59.537Z,99805.25
2023-03-05T16:49:27.792Z,99784.25
2023-03-05T16:51:56.675Z,99876.19
2023-03-05T16:54:26.049Z,99844.47
2023-03-05T16:56:56.316Z,99870.16
2023-03-05T16:59:24.581Z,99874.81
2023-03-05T17:01:53.584Z,99869.75
2023-03-05T17:04:21.851Z,99861.03
2023-03-05T17:06:50.408Z,99860.19
2023-03-05T17:09:19.504Z,99853.97
2023-03-05T17:11:47.621Z,99851.44
2023-03-05T17:14:17.144Z,99850.63
2023-03-05T17:16:45.354Z,99852.31
2023-03-05T17:19:13.772Z,99849.78
2023-03-05T17:21:42.732Z,99854.28
2023-03-05T17:24:11.457Z,99852.59
2023-03-05T17:26:39.619Z,99855.97
2023-03-05T17:29:08.479Z,99855.97
2023-03-05T17:31:38.002Z,99855.97
2023-03-05T17:34:06.165Z,99854.28
2023-03-05T17:36:34.259Z,99853.44
2023-03-05T17:39:02.380Z,99857.94
2023-03-05T17:41:30.445Z,99854.28
2023-03-05T17:43:58.544Z,99859.63
2023-03-05T17:46:26.625Z,99843.88
2023-03-05T17:48:57.171Z,99854.28
2023-03-05T17:51:25.240Z,99850.63
2023-03-05T17:53:53.357Z,99848.94
2023-03-05T17:56:22.261Z,99841.91
2023-03-05T17:58:50.748Z,99842.91
2023-03-05T18:01:27.665Z,99840.22
2023-03-05T18:03:58.050Z,99850.94
2023-03-05T18:06:26.312Z,99839.38
2023-03-05T18:08:54.427Z,99841.19
2023-03-05T18:11:22.554Z,99837.72
2023-03-05T18:13:51.077Z,99836.84
2023-03-05T18:16:19.257Z,99827.84
2023-03-05T18:18:47.412Z,99825.16
2023-03-05T18:21:21.861Z,99795.88
2023-03-05T18:23:51.132Z,99828.84
2023-03-05T18:26:19.555Z,99826.16
2023-03-05T18:28:47.650Z,99822.47
2023-03-05T18:31:15.762Z,99820.81
2023-03-05T18:33:44.333Z,99818.13
2023-03-05T18:36:12.594Z,99820.81
2023-03-05T18:38:42.378Z,99813.78
2023-03-05T18:41:10.587Z,99814.47
2023-03-05T18:43:40.682Z,99810.13
2023-03-05T18:46:08.977Z,99806.44
2023-03-05T18:48:37.216Z,99806.44
2023-03-05T18:51:05.756Z,99806.44
2023-03-05T18:53:33.966Z,99806.44
2023-03-05T18:56:03.688Z,99802.78
2023-03-05T18:58:31.806Z,99800.09
2023-03-05T19:01:00.092Z,99795.72
2023-03-05T19:03:28.318Z,99791.25
2023-03-05T19:05:56.549Z,99795.72
2023-03-05T19:08:24.703Z,99790.38
2023-03-05T19:10:53.019Z,99793.06
2023-03-05T19:13:34.856Z,99790.38
2023-03-05T19:16:08.259Z,99788.72
2023-03-05T19:18:43.192Z,99793.22
2023-03-05T19:21:11.740Z,99786.19
2023-03-05T19:23:39.915Z,99717.03
2023-03-05T19:26:08.418Z,99790.53
2023-03-05T19:28:38.011Z,99782.81
2023-03-05T19:31:06.451Z,99704.69
2023-03-05T19:33:34.633Z,99761.81
2023-03-05T19:36:02.842Z,99696.88
2023-03-05T19:38:31.014Z,99722.09
2023-03-05T19:40:59.197Z,99782.50
2023-03-05T19:43:27.408Z,99772.66
2023-03-05T19:46:03.345Z,99778.00
2023-03-05T19:48:31.632Z,99771.00
2023-03-05T19:50:59.709Z,99776.34
2023-03-05T19:53:28.010Z,99774.63
2023-03-05T19:55:56.636Z,99730.41
2023-03-05T19:58:25.103Z,99778.00
2023-03-05T20:00:53.170Z,99766.31
2023-03-05T20:03:22.747Z,99761.97
2023-03-05T20:05:50.978Z,99761.97
2023-03-05T20:08:19.069Z,99761.97
2023-03-05T20:10:47.132Z,99764.63
2023-03-05T20:13:15.174Z,99762.28
2023-03-05T20:15:43.413Z,99756.63
2023-03-05T20:18:11.705Z,99751.72
2023-03-05T20:20:41.210Z,99757.63
2023-03-05T20:23:09.315Z,99674.81
2023-03-05T20:25:39.589Z,99740.88
2023-03-05T20:28:08.314Z,99654.66
2023-03-05T20:30:36.383Z,99748.75
2023-03-05T20:33:04.629Z,99747.91
2023-03-05T20:35:32.822Z,99737.50
2023-03-05T20:38:20.798Z,99738.91
2023-03-05T20:40:49.504Z,99739.06
2023-03-05T20:43:18.164Z,99738.91
2023-03-05T20:45:46.373Z,99738.91
2023-03-05T20:48:14.522Z,99734.53
2023-03-05T20:50:43.031Z,99570.88
2023-03-05T20:53:12.710Z,99730.19
2023-03-05T20:55:40.831Z,99730.19
2023-03-05T20:58:09.929Z,99725.69
2023-03-05T21:00:38.672Z,99724.84
2023-03-05T21:03:07.371Z,99719.47
2023-03-05T21:05:36.835Z,99725.69
2023-03-05T21:08:05.882Z,99714.13
2023-03-05T21:10:35.486Z,99712.47
2023-03-05T21:13:03.851Z,99714.13
2023-03-05T21:15:32.492Z,99709.78
2023-03-05T21:18:00.621Z,99713.28
2023-03-05T21:20:30.849Z,99715.81
2023-03-05T21:22:59.747Z,99702.59
2023-03-05T21:25:29.530Z,99703.59
2023-03-05T21:28:01.249Z,99698.94
2023-03-05T21:30:31.760Z,99699.75
2023-03-05T21:33:00.670Z,99708.78
2023-03-05T21:35:29.865Z,99530.16
2023-03-05T21:37:57.998Z,99692.72
2023-03-05T21:40:26.687Z,99691.88
2023-03-05T21:42:55.016Z,99601.38
2023-03-05T21:45:26.555Z,99687.38
2023-03-05T21:47:56.208Z,99611.38
2023-03-05T21:50:25.950Z,99577.25
2023-03-05T21:52:54.674Z,99690.06
2023-03-05T21:55:30.755Z,99681.19
2023-03-05T21:57:58.884Z,99674.03
2023-03-05T22:00:28.434Z,99678.66
2023-03-05T22:02:56.490Z,99675.84
2023-03-05T22:05:24.775Z,99675.03
2023-03-05T22:07:52.888Z,99680.38
2023-03-05T22:10:22.245Z,99665.44
2023-03-05T22:12:56.857Z,99672.34
2023-03-05T22:15:25.032Z,99664.31
2023-03-05T22:17:54.520Z,99663.47
2023-03-05T22:20:23.491Z,99592.13
2023-03-05T22:22:51.892Z,99566.94
2023-03-05T22:25:20.449Z,99664.31
2023-03-05T22:27:48.582Z,99561.59
2023-03-05T22:30:16.896Z,99658.97
2023-03-05T22:32:45.052Z,99653.63
2023-03-05T22:35:16.737Z,99647.44
2023-03-05T22:37:45.052Z,99648.28
2023-03-05T22:40:17.231Z,99644.75
2023-03-05T22:42:45.912Z,99561.84
2023-03-05T22:45:15.299Z,99637.59
2023-03-05T22:47:43.429Z,99636.88
2023-03-05T22:50:12.832Z,99636.88
2023-03-05T22:52:42.731Z,99635.88
2023-03-05T22:55:13.704Z,99628.88
2023-03-05T22:57:41.982Z,99630.53
2023-03-05T23:00:14.551Z,99625.19
2023-03-05T23:02:43.231Z,99621.84
2023-03-05T23:05:12.488Z,99463.56
2023-03-05T23:07:43.420Z,99618.84
2023-03-05T23:10:14.589Z,99614.47
2023-03-05T23:12:46.277Z,99614.47
2023-03-05T23:15:16.805Z,99625.53
2023-03-05T23:17:44.929Z,99612.81
2023-03-05T23:20:16.989Z,99618.16
2023-03-05T23:22:46.766Z,99537.59
2023-03-05T23:25:16.221Z,99613.66
2023-03-05T23:27:44.578Z,99519.56
2023-03-05T23:30:19.693Z,99613.66
2023-03-05T23:32:53.224Z,99612.81
2023-03-05T23:35:24.926Z,99609.13
2023-03-05T23:37:55.741Z,99488.03
2023-03-05T23:40:26.148Z,99602.13
2023-03-05T23:42:54.918Z,99602.13
2023-03-05T23:45:24.394Z,99593.44
2023-03-05T23:47:53.270Z,99607.47
2023-03-05T23:50:23.750Z,99606.47
2023-03-05T23:52:54.105Z,99596.78
2023-03-05T23:55:26.195Z,99596.78
2023-03-05T23:57:55.240Z,99559.88
